CBN4 weather

Masset Seaplane Base
British Columbia, Canada

Public forecast

Using degrees Celsius for public forecast. Weather courtesy of forecast.io.

METAR (pilot weather report)

Report is more than 2 hours old.

Closest report is Masset Airport, 1.1 nm (2.0 km) NE. Retrieved 2019/07/18 00:00 UTC (4 hours ago):

CZMT 180000Z 22003KT 170V280 15SM -RA FEW006 FEW015 SCT020 SCT030 OVC070 13/12 A2966 RMK SC1SC1SC1SC1AS4 LAST STFD OBS/NXT 181300Z SLP044 DENSITY ALT 100FT

TAF (pilot weather forecast)

Forecast is more than 6 hours old.

Closest forecast is Masset Airport, 1.1 nm (2.0 km) NE. Retrieved 2019/07/17 19:00 UTC (9 hours ago):

TAF CZMT 171838Z 1719/1724 25007KT P6SM -RA FEW008 SCT015 OVC030 TEMPO 1719/1724 4SM -SHRA BR SCT008 OVC015 BECMG 1719/1721 27012KT RMK NXT FCST WILL BE ISSUED AT 181415Z